Cairo, Egypt
Current Conditions -  °F | °C
As of 3:30 PM on Tuesday 21 Oct 2014 (Local Time) from HECA Reporting Station
Clear Clear  
Wind Chill: 77°   Ceiling: Unl
Heat Index: 78°   Visibility: 4mi
Dew Point: 50°   Wind: 7mph
Humidity: 39%   Direction: 340°NNW
Pressure: 29.94"   Gusts: NA
Location:  30.06°N, 31.25°E
Report Text: HECA 211330Z 34006KT 6000 NSC 25/10 Q1014 NOSIG
Loading
Personal Weather Stations






























Interactive Weather Map New forecast layout! Learn more

10-Day Weather Forecast

Advertisements
Track Severe Weather on mobile